createdAt,value
2018-06-29T00:02:13.814Z,11.83
2018-06-29T00:04:41.571Z,14.97
2018-06-29T00:07:09.335Z,13.17
2018-06-29T00:09:37.100Z,11.93
2018-06-29T00:12:04.855Z,11.53
2018-06-29T00:14:32.620Z,10.87
2018-06-29T00:17:00.676Z,10.13
2018-06-29T00:19:28.419Z,10.40
2018-06-29T00:24:37.185Z,13.03
2018-06-29T00:27:04.762Z,11.40
2018-06-29T00:29:32.279Z,9.93
2018-06-29T00:32:00.035Z,11.57
2018-06-29T00:34:27.741Z,10.93
2018-06-29T00:36:55.368Z,12.50
2018-06-29T00:39:22.993Z,11.57
2018-06-29T00:41:50.560Z,11.17
2018-06-29T00:44:18.308Z,11.10
2018-06-29T00:46:45.980Z,12.20
2018-06-29T00:49:13.563Z,12.90
2018-06-29T00:51:41.145Z,11.27
2018-06-29T00:54:08.739Z,12.03
2018-06-29T00:56:36.339Z,11.03
2018-06-29T00:59:04.174Z,11.67
2018-06-29T01:01:31.940Z,11.50
2018-06-29T01:03:59.698Z,12.77
2018-06-29T01:06:27.355Z,10.13
2018-06-29T01:08:55.034Z,9.57
2018-06-29T01:11:22.761Z,10.07
2018-06-29T01:13:50.293Z,10.00
2018-06-29T01:16:17.969Z,10.50
2018-06-29T01:18:45.754Z,8.73
2018-06-29T01:21:13.402Z,10.10
2018-06-29T01:23:41.091Z,11.80
2018-06-29T01:26:08.761Z,10.63
2018-06-29T01:28:36.541Z,9.57
2018-06-29T01:31:04.283Z,10.43
2018-06-29T01:33:32.000Z,9.70
2018-06-29T01:35:59.585Z,9.93
2018-06-29T01:38:27.150Z,10.10
2018-06-29T01:40:54.738Z,11.03
2018-06-29T01:43:22.404Z,12.43
2018-06-29T01:45:50.087Z,9.23
2018-06-29T01:48:17.773Z,9.73
2018-06-29T01:50:45.465Z,12.40
2018-06-29T01:53:13.070Z,9.50
2018-06-29T01:55:40.800Z,12.17
2018-06-29T01:58:08.466Z,12.27
2018-06-29T02:00:36.070Z,11.90
2018-06-29T02:03:03.665Z,10.37
2018-06-29T02:05:31.451Z,13.77
2018-06-29T02:07:59.056Z,10.50
2018-06-29T02:10:26.741Z,13.37
2018-06-29T02:12:54.313Z,13.27
2018-06-29T02:15:22.094Z,13.87
2018-06-29T02:17:49.750Z,11.90
2018-06-29T02:20:17.506Z,12.57
2018-06-29T02:22:45.268Z,11.33
2018-06-29T02:25:13.084Z,13.90
2018-06-29T02:27:41.643Z,12.13
2018-06-29T02:30:09.464Z,12.70
2018-06-29T02:32:37.254Z,13.93
2018-06-29T02:35:04.956Z,11.23
2018-06-29T02:37:32.675Z,12.33
2018-06-29T02:40:00.240Z,13.30
2018-06-29T02:42:27.955Z,10.50
2018-06-29T02:44:55.649Z,13.93
2018-06-29T02:47:23.240Z,9.80
2018-06-29T02:49:50.915Z,11.60
2018-06-29T02:52:18.500Z,10.43
2018-06-29T02:54:46.160Z,10.97
2018-06-29T02:57:13.769Z,13.87
2018-06-29T02:59:41.433Z,10.00
2018-06-29T03:05:06.953Z,11.20
2018-06-29T03:07:34.731Z,10.80
2018-06-29T03:10:02.480Z,11.63
2018-06-29T03:12:30.087Z,10.40
2018-06-29T03:14:58.041Z,14.23
2018-06-29T03:17:25.800Z,10.97
2018-06-29T03:19:53.609Z,13.23
2018-06-29T03:22:21.287Z,11.40
2018-06-29T03:24:49.056Z,12.03
2018-06-29T03:27:16.755Z,10.80
2018-06-29T03:29:44.720Z,11.53
2018-06-29T03:32:12.280Z,11.60
2018-06-29T03:34:40.081Z,11.67
2018-06-29T03:37:07.776Z,11.97
2018-06-29T03:39:35.604Z,11.03
2018-06-29T03:42:03.310Z,11.63
2018-06-29T03:44:30.953Z,11.20
2018-06-29T03:46:58.635Z,12.47
2018-06-29T03:49:26.405Z,11.87
2018-06-29T03:51:54.188Z,12.50
2018-06-29T03:54:21.734Z,13.27
2018-06-29T03:56:49.460Z,16.97
2018-06-29T03:59:17.182Z,16.50
2018-06-29T04:01:44.980Z,14.17
2018-06-29T04:04:12.531Z,16.53
2018-06-29T04:06:40.102Z,17.90
2018-06-29T04:09:09.399Z,16.27
2018-06-29T04:11:37.109Z,21.63
2018-06-29T04:14:04.889Z,21.37
2018-06-29T04:16:32.487Z,19.47
2018-06-29T04:19:00.077Z,17.90
2018-06-29T04:21:27.661Z,21.53
2018-06-29T04:23:55.376Z,20.30
2018-06-29T04:26:23.133Z,18.50
2018-06-29T04:28:50.841Z,20.27
2018-06-29T04:31:18.586Z,18.83
2018-06-29T04:33:46.189Z,23.33
2018-06-29T04:36:13.961Z,17.80
2018-06-29T04:38:41.746Z,19.07
2018-06-29T04:41:09.340Z,18.67
2018-06-29T04:43:36.920Z,19.87
2018-06-29T04:46:04.731Z,22.47
2018-06-29T04:48:32.421Z,21.50
2018-06-29T04:51:00.149Z,21.13
2018-06-29T04:53:28.016Z,20.87
2018-06-29T04:55:55.800Z,17.70
2018-06-29T04:58:23.606Z,15.70
2018-06-29T05:00:51.788Z,22.43
2018-06-29T05:03:19.395Z,17.37
2018-06-29T05:05:47.086Z,17.23
2018-06-29T05:08:14.809Z,20.53
2018-06-29T05:10:42.386Z,21.87
2018-06-29T05:13:10.166Z,17.70
2018-06-29T05:15:37.918Z,18.70
2018-06-29T05:18:05.763Z,16.57
2018-06-29T05:20:33.520Z,17.37
2018-06-29T05:23:01.273Z,15.83
2018-06-29T05:25:28.850Z,15.93
2018-06-29T05:27:56.586Z,16.53
2018-06-29T05:30:24.356Z,20.40
2018-06-29T05:32:52.055Z,15.77
2018-06-29T05:35:19.955Z,19.03
2018-06-29T05:37:47.582Z,15.73
2018-06-29T05:40:15.236Z,15.20
2018-06-29T05:42:43.048Z,13.30
2018-06-29T05:45:10.760Z,17.73
2018-06-29T05:47:38.341Z,17.77
2018-06-29T05:50:05.935Z,15.50
2018-06-29T05:52:33.771Z,16.70
2018-06-29T05:55:01.552Z,14.73
2018-06-29T05:57:29.416Z,18.17
2018-06-29T05:59:57.206Z,13.33
2018-06-29T06:02:25.018Z,17.33
2018-06-29T06:04:52.656Z,13.97
2018-06-29T06:07:20.426Z,13.13
2018-06-29T06:09:48.040Z,10.60
2018-06-29T06:12:15.645Z,11.73
2018-06-29T06:14:43.217Z,13.33
2018-06-29T06:17:10.875Z,13.30
2018-06-29T06:19:49.971Z,11.37
2018-06-29T06:22:17.571Z,11.33
2018-06-29T06:24:45.266Z,11.47
2018-06-29T06:27:13.007Z,13.00
2018-06-29T06:29:40.787Z,10.73
2018-06-29T06:32:08.575Z,9.90
2018-06-29T06:34:36.154Z,10.60
2018-06-29T06:37:03.932Z,9.77
2018-06-29T06:39:31.713Z,10.67
2018-06-29T06:41:59.439Z,10.77
2018-06-29T06:44:27.151Z,10.30
2018-06-29T06:46:54.909Z,10.40
2018-06-29T06:49:22.558Z,13.37
2018-06-29T06:51:50.281Z,11.33
2018-06-29T06:54:17.859Z,10.50
2018-06-29T06:56:45.612Z,9.47
2018-06-29T06:59:13.352Z,10.10
2018-06-29T07:01:41.091Z,11.73
2018-06-29T07:04:08.827Z,9.73
2018-06-29T07:06:36.891Z,10.43
2018-06-29T07:09:06.691Z,11.03
2018-06-29T07:11:34.392Z,10.77
2018-06-29T07:14:02.057Z,9.23
2018-06-29T07:16:29.646Z,12.37
2018-06-29T07:18:57.223Z,13.10
2018-06-29T07:21:24.978Z,11.40
2018-06-29T07:23:52.566Z,11.50
2018-06-29T07:26:20.307Z,11.57
2018-06-29T07:28:48.089Z,12.23
2018-06-29T07:31:15.848Z,13.50
2018-06-29T07:33:43.504Z,12.80
2018-06-29T07:36:11.254Z,12.13
2018-06-29T07:38:39.046Z,13.77
2018-06-29T07:41:06.768Z,11.17
2018-06-29T07:43:34.336Z,14.77
2018-06-29T07:46:02.072Z,12.33
2018-06-29T07:48:29.853Z,13.30
2018-06-29T07:50:57.751Z,13.67
2018-06-29T07:53:25.461Z,13.60
2018-06-29T07:55:53.211Z,13.57
2018-06-29T07:58:21.092Z,11.77
2018-06-29T08:00:48.612Z,11.97
2018-06-29T08:03:16.882Z,13.00
2018-06-29T08:05:44.697Z,12.37
2018-06-29T08:08:12.353Z,11.40
2018-06-29T08:10:40.094Z,11.77
2018-06-29T08:13:07.691Z,10.07
2018-06-29T08:15:35.396Z,10.07
2018-06-29T08:18:03.148Z,10.33
2018-06-29T08:20:30.818Z,11.87
2018-06-29T08:22:58.527Z,10.93
2018-06-29T08:25:26.211Z,8.97
2018-06-29T08:27:53.952Z,9.93
2018-06-29T08:30:21.647Z,10.37
2018-06-29T08:32:49.366Z,9.83
2018-06-29T08:35:16.938Z,11.63
2018-06-29T08:37:44.470Z,11.37
2018-06-29T08:40:12.243Z,11.90
2018-06-29T08:42:39.828Z,11.03
2018-06-29T08:45:08.423Z,9.67
2018-06-29T08:47:36.162Z,10.17
2018-06-29T08:50:03.983Z,11.97
2018-06-29T08:52:31.661Z,10.60
2018-06-29T08:54:59.317Z,9.87
2018-06-29T08:57:26.998Z,10.77
2018-06-29T08:59:54.668Z,9.43
2018-06-29T09:02:22.248Z,10.70
2018-06-29T09:04:49.936Z,11.53
2018-06-29T09:07:17.492Z,9.30
2018-06-29T09:09:45.172Z,12.40
2018-06-29T09:12:12.882Z,13.47
2018-06-29T09:14:40.466Z,12.93
2018-06-29T09:17:08.192Z,11.10
2018-06-29T09:19:35.862Z,17.53
2018-06-29T09:22:03.582Z,10.20
2018-06-29T09:24:31.299Z,11.97
2018-06-29T09:26:58.807Z,11.13
2018-06-29T09:29:26.506Z,11.97
2018-06-29T09:31:54.206Z,9.97
2018-06-29T09:34:21.923Z,9.37
2018-06-29T09:36:49.600Z,9.93
2018-06-29T09:39:17.351Z,10.60
2018-06-29T09:41:45.061Z,8.93
2018-06-29T09:44:12.836Z,9.43
2018-06-29T09:46:40.553Z,10.47
2018-06-29T09:49:08.232Z,9.73
2018-06-29T09:51:35.863Z,9.00
2018-06-29T09:54:03.581Z,10.63
2018-06-29T09:56:31.282Z,8.67
2018-06-29T09:58:59.016Z,8.90
2018-06-29T10:01:26.820Z,9.20
2018-06-29T10:03:54.268Z,9.10
2018-06-29T10:06:22.030Z,8.37
2018-06-29T10:08:49.573Z,8.63
2018-06-29T10:11:17.232Z,8.57
2018-06-29T10:13:44.888Z,10.00
2018-06-29T10:16:12.464Z,8.77
2018-06-29T10:18:40.169Z,9.37
2018-06-29T10:21:07.984Z,8.23
2018-06-29T10:23:35.642Z,8.43
2018-06-29T10:26:03.412Z,9.23
2018-06-29T10:28:31.032Z,8.57
2018-06-29T10:30:58.794Z,10.47
2018-06-29T10:33:26.332Z,8.13
2018-06-29T10:35:53.923Z,8.30
2018-06-29T10:38:21.543Z,8.03
2018-06-29T10:40:49.242Z,7.73
2018-06-29T10:43:16.881Z,7.40
2018-06-29T10:45:45.470Z,8.10
2018-06-29T10:48:13.123Z,9.37
2018-06-29T10:50:40.823Z,7.47
2018-06-29T10:53:08.367Z,8.10
2018-06-29T10:55:36.063Z,8.23
2018-06-29T10:58:03.643Z,8.23
2018-06-29T11:00:31.362Z,8.40
2018-06-29T11:02:59.094Z,7.80
2018-06-29T11:05:26.851Z,8.27
2018-06-29T11:07:54.453Z,7.03
2018-06-29T11:10:22.169Z,7.73
2018-06-29T11:12:49.762Z,9.67
2018-06-29T11:15:17.269Z,8.33
2018-06-29T11:17:44.979Z,8.07
2018-06-29T11:20:12.543Z,8.73
2018-06-29T11:22:40.260Z,9.07
2018-06-29T11:25:07.927Z,7.60
2018-06-29T11:27:35.597Z,7.40
2018-06-29T11:30:03.395Z,7.00
2018-06-29T11:32:32.024Z,7.33
2018-06-29T11:34:59.586Z,8.20
2018-06-29T11:37:27.364Z,7.47
2018-06-29T11:39:55.561Z,6.80
2018-06-29T11:42:23.270Z,6.10
2018-06-29T11:44:51.080Z,5.30
2018-06-29T11:47:18.680Z,5.70
2018-06-29T11:49:46.389Z,6.27
2018-06-29T11:52:13.949Z,5.87
2018-06-29T11:54:41.524Z,5.73
2018-06-29T11:57:09.234Z,5.93
2018-06-29T11:59:36.993Z,5.03
2018-06-29T12:02:04.866Z,5.80
2018-06-29T12:04:33.163Z,5.17
2018-06-29T12:07:00.842Z,5.10
2018-06-29T12:09:28.543Z,5.20
2018-06-29T12:11:56.268Z,5.30
2018-06-29T12:14:23.967Z,5.00
2018-06-29T12:16:51.698Z,4.67
2018-06-29T12:19:19.299Z,5.10
2018-06-29T12:21:46.840Z,4.40
2018-06-29T12:24:14.534Z,5.10
2018-06-29T12:26:42.226Z,4.90
2018-06-29T12:29:09.862Z,7.20
2018-06-29T12:31:37.504Z,6.37
2018-06-29T12:34:05.230Z,6.00
2018-06-29T12:36:32.955Z,5.93
2018-06-29T12:39:00.499Z,5.57
2018-06-29T12:41:28.309Z,6.03
2018-06-29T12:43:56.093Z,6.00
2018-06-29T12:46:23.700Z,7.23
2018-06-29T12:48:51.370Z,11.40
2018-06-29T12:51:19.008Z,6.60
2018-06-29T12:53:46.723Z,9.70
2018-06-29T12:56:14.418Z,6.70
2018-06-29T12:58:42.162Z,6.83
2018-06-29T13:01:09.849Z,7.40
2018-06-29T13:03:37.589Z,7.70
2018-06-29T13:06:05.292Z,8.67
2018-06-29T13:08:33.039Z,8.00
2018-06-29T13:11:00.681Z,29.27
2018-06-29T13:13:28.494Z,9.47
2018-06-29T13:15:56.199Z,19.73
2018-06-29T13:18:23.720Z,9.77
2018-06-29T13:20:53.250Z,24.77
2018-06-29T13:23:20.958Z,22.63
2018-06-29T13:25:48.755Z,19.57
2018-06-29T13:28:16.574Z,10.97
2018-06-29T13:30:44.326Z,8.97
2018-06-29T13:33:12.010Z,8.23
2018-06-29T13:35:39.743Z,9.53
2018-06-29T13:38:07.574Z,7.80
2018-06-29T13:40:35.278Z,8.13
2018-06-29T13:43:03.333Z,9.53
2018-06-29T13:45:31.094Z,7.73
2018-06-29T13:47:58.746Z,7.77
2018-06-29T13:50:26.329Z,7.60
2018-06-29T13:52:53.994Z,8.13
2018-06-29T13:55:21.658Z,7.87
2018-06-29T13:57:49.397Z,7.50
2018-06-29T14:00:17.119Z,7.12
2018-06-29T14:02:46.539Z,6.45
2018-06-29T14:05:15.112Z,7.55
2018-06-29T14:07:45.974Z,7.05
2018-06-29T14:10:15.978Z,7.10
2018-06-29T14:12:44.427Z,7.78
2018-06-29T14:15:13.365Z,9.87
2018-06-29T14:17:41.118Z,8.73
2018-06-29T14:20:09.528Z,6.97
2018-06-29T14:22:37.341Z,7.43
2018-06-29T14:25:05.094Z,7.57
2018-06-29T14:27:33.888Z,6.80
2018-06-29T14:30:01.579Z,6.40
2018-06-29T14:32:29.584Z,6.03
2018-06-29T14:34:57.305Z,6.10
2018-06-29T14:37:25.027Z,5.73
2018-06-29T14:39:52.762Z,5.45
2018-06-29T14:42:20.288Z,5.20
2018-06-29T14:44:47.832Z,5.50
2018-06-29T14:47:15.422Z,5.85
2018-06-29T14:49:43.125Z,5.78
2018-06-29T14:52:10.820Z,6.42
2018-06-29T14:54:38.588Z,5.10
2018-06-29T14:57:06.328Z,5.78
2018-06-29T14:59:34.074Z,5.87
2018-06-29T15:02:01.849Z,6.20
2018-06-29T15:04:29.563Z,5.20
2018-06-29T15:06:57.270Z,5.83
2018-06-29T15:09:25.014Z,4.73
2018-06-29T15:11:52.750Z,4.90
2018-06-29T15:14:20.298Z,5.77
2018-06-29T15:16:48.031Z,5.73
2018-06-29T15:19:15.588Z,5.50
2018-06-29T15:21:43.336Z,5.60
2018-06-29T15:24:11.060Z,5.93
2018-06-29T15:26:38.690Z,5.50
2018-06-29T15:29:06.279Z,5.70
2018-06-29T15:31:33.974Z,5.13
2018-06-29T15:34:01.600Z,5.30
2018-06-29T15:36:29.234Z,5.70
2018-06-29T15:38:56.968Z,6.17
2018-06-29T15:41:24.738Z,5.40
2018-06-29T15:43:52.535Z,5.83
2018-06-29T15:46:20.301Z,5.47
2018-06-29T15:48:48.025Z,5.60
2018-06-29T15:51:15.591Z,6.00
2018-06-29T15:53:43.265Z,6.20
2018-06-29T15:56:11.410Z,5.80
2018-06-29T15:58:39.124Z,5.13
2018-06-29T16:01:06.948Z,5.00
2018-06-29T16:03:34.501Z,5.50
2018-06-29T16:06:02.187Z,5.20
2018-06-29T16:08:29.898Z,5.70
2018-06-29T16:10:57.625Z,5.20
2018-06-29T16:13:25.379Z,5.23
2018-06-29T16:15:53.074Z,6.33
2018-06-29T16:18:20.635Z,5.80
2018-06-29T16:20:48.338Z,4.90
2018-06-29T16:23:16.039Z,5.90
2018-06-29T16:25:43.739Z,5.63
2018-06-29T16:28:11.465Z,5.20
2018-06-29T16:30:39.208Z,5.57
2018-06-29T16:33:06.885Z,5.83
2018-06-29T16:35:34.624Z,5.97
2018-06-29T16:38:02.334Z,5.67
2018-06-29T16:40:30.353Z,5.60
2018-06-29T16:42:58.086Z,5.57
2018-06-29T16:45:25.849Z,5.50
2018-06-29T16:47:53.565Z,4.67
2018-06-29T16:50:21.292Z,5.70
2018-06-29T16:52:48.843Z,4.70
2018-06-29T16:55:16.508Z,5.03
2018-06-29T16:57:44.217Z,5.20
2018-06-29T17:00:11.915Z,5.70
2018-06-29T17:02:39.630Z,5.30
2018-06-29T17:05:07.375Z,5.70
2018-06-29T17:07:34.892Z,6.30
2018-06-29T17:10:02.702Z,5.30
2018-06-29T17:12:30.265Z,4.80
2018-06-29T17:14:57.940Z,7.77
2018-06-29T17:17:25.482Z,5.30
2018-06-29T17:19:53.118Z,5.50
2018-06-29T17:22:20.625Z,5.50
2018-06-29T17:24:48.220Z,4.87
2018-06-29T17:27:16.004Z,5.47
2018-06-29T17:29:43.756Z,6.40
2018-06-29T17:32:11.413Z,5.70
2018-06-29T17:34:39.155Z,4.83
2018-06-29T17:37:06.928Z,5.40
2018-06-29T17:39:34.616Z,5.63
2018-06-29T17:42:02.307Z,5.00
2018-06-29T17:44:30.021Z,8.90
2018-06-29T17:46:57.966Z,13.77
2018-06-29T17:49:25.480Z,11.40
2018-06-29T17:51:53.239Z,9.87
2018-06-29T17:54:20.936Z,11.33
2018-06-29T17:56:48.551Z,14.73
2018-06-29T17:59:16.245Z,10.20
2018-06-29T18:01:44.032Z,6.80
2018-06-29T18:04:11.535Z,6.40
2018-06-29T18:06:39.251Z,6.30
2018-06-29T18:09:08.164Z,5.50
2018-06-29T18:11:35.760Z,4.90
2018-06-29T18:14:03.774Z,5.17
2018-06-29T18:16:31.514Z,5.30
2018-06-29T18:18:59.158Z,5.10
2018-06-29T18:21:26.876Z,5.30
2018-06-29T18:23:54.624Z,5.30
2018-06-29T18:26:22.320Z,6.03
2018-06-29T18:28:50.062Z,5.57
2018-06-29T18:31:17.684Z,6.30
2018-06-29T18:33:45.216Z,7.17
2018-06-29T18:36:12.846Z,7.17
2018-06-29T18:38:40.421Z,7.23
2018-06-29T18:41:08.179Z,7.00
2018-06-29T18:43:35.743Z,5.93
2018-06-29T18:46:04.619Z,6.47
2018-06-29T18:48:32.201Z,7.33
2018-06-29T18:50:59.913Z,6.70
2018-06-29T18:53:27.673Z,7.07
2018-06-29T18:55:55.594Z,6.63
2018-06-29T18:58:23.145Z,7.13
2018-06-29T19:00:50.696Z,7.30
2018-06-29T19:03:18.356Z,6.20
2018-06-29T19:05:46.030Z,8.27
2018-06-29T19:08:13.727Z,7.47
2018-06-29T19:10:41.302Z,6.63
2018-06-29T19:13:09.085Z,9.13
2018-06-29T19:15:36.800Z,7.50
2018-06-29T19:18:04.654Z,8.30
2018-06-29T19:20:32.416Z,7.77
2018-06-29T19:23:00.175Z,8.10
2018-06-29T19:25:27.993Z,8.53
2018-06-29T19:27:55.476Z,7.53
2018-06-29T19:30:23.061Z,8.37
2018-06-29T19:32:50.720Z,8.07
2018-06-29T19:35:18.456Z,7.43
2018-06-29T19:37:46.645Z,8.20
2018-06-29T19:40:14.370Z,7.07
2018-06-29T19:42:42.074Z,6.90
2018-06-29T19:45:09.823Z,7.30
2018-06-29T19:47:37.539Z,7.30
2018-06-29T19:50:05.143Z,6.23
2018-06-29T19:52:32.841Z,7.10
2018-06-29T19:55:00.546Z,8.37
2018-06-29T19:57:28.271Z,7.83
2018-06-29T19:59:56.017Z,7.97
2018-06-29T20:02:25.376Z,7.33
2018-06-29T20:04:53.801Z,8.63
2018-06-29T20:07:21.380Z,7.13
2018-06-29T20:09:49.021Z,9.07
2018-06-29T20:12:16.671Z,8.70
2018-06-29T20:14:44.234Z,7.97
2018-06-29T20:17:12.005Z,8.20
2018-06-29T20:19:39.706Z,8.67
2018-06-29T20:22:07.392Z,8.80
2018-06-29T20:24:35.209Z,9.10
2018-06-29T20:27:02.996Z,9.90
2018-06-29T20:29:30.727Z,8.17
2018-06-29T20:31:58.561Z,8.70
2018-06-29T20:34:26.112Z,8.63
2018-06-29T20:36:53.855Z,8.47
2018-06-29T20:39:21.565Z,9.33
2018-06-29T20:41:49.197Z,8.90
2018-06-29T20:44:17.139Z,9.07
2018-06-29T20:46:44.862Z,9.37
2018-06-29T20:49:12.628Z,8.37
2018-06-29T20:51:40.295Z,8.20
2018-06-29T20:54:07.911Z,8.80
2018-06-29T20:56:35.599Z,8.20
2018-06-29T20:59:03.373Z,8.50
2018-06-29T21:01:30.999Z,7.93
2018-06-29T21:03:58.690Z,9.00
2018-06-29T21:06:26.319Z,8.13
2018-06-29T21:08:54.007Z,9.10
2018-06-29T21:11:21.677Z,8.70
2018-06-29T21:13:49.310Z,8.20
2018-06-29T21:16:17.000Z,9.33
2018-06-29T21:18:46.015Z,9.33
2018-06-29T21:21:14.070Z,8.67
2018-06-29T21:23:42.953Z,8.83
2018-06-29T21:26:12.005Z,8.47
2018-06-29T21:28:40.512Z,9.40
2018-06-29T21:31:08.253Z,9.87
2018-06-29T21:33:35.935Z,9.47
2018-06-29T21:36:04.100Z,9.13
2018-06-29T21:38:32.995Z,8.70
2018-06-29T21:41:00.551Z,9.63
2018-06-29T21:43:29.259Z,9.90
2018-06-29T21:45:57.765Z,10.37
2018-06-29T21:48:25.679Z,10.60
2018-06-29T21:50:53.794Z,8.80
2018-06-29T21:53:22.772Z,12.00
2018-06-29T21:55:51.254Z,10.67
2018-06-29T21:58:18.979Z,10.40
2018-06-29T22:00:46.740Z,11.60
2018-06-29T22:03:15.576Z,10.03
2018-06-29T22:05:45.095Z,8.83
2018-06-29T22:08:13.306Z,9.53
2018-06-29T22:10:42.729Z,10.33
2018-06-29T22:13:10.934Z,8.57
2018-06-29T22:15:39.210Z,10.87
2018-06-29T22:18:07.769Z,11.20
2018-06-29T22:20:36.280Z,9.50
2018-06-29T22:23:06.057Z,9.13
2018-06-29T22:25:33.731Z,9.60
2018-06-29T22:28:01.463Z,9.97
2018-06-29T22:30:29.382Z,11.23
2018-06-29T22:32:57.010Z,10.00
2018-06-29T22:35:24.725Z,11.50
2018-06-29T22:37:52.417Z,11.07
2018-06-29T22:40:19.987Z,10.43
2018-06-29T22:42:47.697Z,12.10
2018-06-29T22:45:15.420Z,10.40
2018-06-29T22:47:43.077Z,11.37
2018-06-29T22:50:10.796Z,13.13
2018-06-29T22:52:38.515Z,10.10
2018-06-29T22:55:06.054Z,14.20
2018-06-29T22:57:33.781Z,11.03
2018-06-29T23:00:01.445Z,12.80
2018-06-29T23:02:29.146Z,11.93
2018-06-29T23:04:56.822Z,10.03
2018-06-29T23:07:24.507Z,10.37
2018-06-29T23:09:52.152Z,10.00
2018-06-29T23:12:19.795Z,10.63
2018-06-29T23:14:47.443Z,10.27
2018-06-29T23:17:14.981Z,9.57
2018-06-29T23:19:42.558Z,10.83
2018-06-29T23:22:10.191Z,13.13
2018-06-29T23:24:37.863Z,11.53
2018-06-29T23:27:05.581Z,11.73
2018-06-29T23:29:33.127Z,10.80
2018-06-29T23:32:00.805Z,9.60
2018-06-29T23:34:28.396Z,9.40
2018-06-29T23:36:56.081Z,9.10
2018-06-29T23:39:23.835Z,9.30
2018-06-29T23:41:51.568Z,9.17
2018-06-29T23:44:19.256Z,9.00
2018-06-29T23:46:46.810Z,9.70
2018-06-29T23:49:14.365Z,9.07
2018-06-29T23:51:42.075Z,9.10
2018-06-29T23:54:09.746Z,9.17
2018-06-29T23:56:37.300Z,9.53
2018-06-29T23:59:05.012Z,10.10
